createdAt,value
2023-04-08T00:01:21.079Z,90.00
2023-04-08T00:03:48.416Z,90.00
2023-04-08T00:06:16.248Z,90.20
2023-04-08T00:08:43.589Z,90.10
2023-04-08T00:11:10.939Z,90.20
2023-04-08T00:13:38.257Z,90.30
2023-04-08T00:16:05.856Z,90.70
2023-04-08T00:18:33.086Z,90.40
2023-04-08T00:21:00.546Z,90.50
2023-04-08T00:23:27.813Z,90.40
2023-04-08T00:25:55.324Z,90.60
2023-04-08T00:28:22.754Z,90.70
2023-04-08T00:30:50.047Z,90.70
2023-04-08T00:33:17.396Z,91.00
2023-04-08T00:35:44.731Z,90.90
2023-04-08T00:38:12.230Z,91.10
2023-04-08T00:40:39.620Z,91.20
2023-04-08T00:43:07.001Z,91.50
2023-04-08T00:45:34.524Z,91.70
2023-04-08T00:48:03.592Z,91.80
2023-04-08T00:50:31.328Z,91.80
2023-04-08T00:52:58.623Z,92.00
2023-04-08T00:55:25.939Z,92.20
2023-04-08T00:57:53.905Z,92.30
2023-04-08T01:00:21.588Z,92.40
2023-04-08T01:02:54.894Z,92.40
2023-04-08T01:05:48.441Z,92.30
2023-04-08T01:08:18.032Z,92.60
2023-04-08T01:10:50.970Z,92.70
2023-04-08T01:13:19.970Z,92.80
2023-04-08T01:15:50.625Z,92.90
2023-04-08T01:18:19.006Z,93.00
2023-04-08T01:20:47.602Z,93.00
2023-04-08T01:23:28.125Z,93.20
2023-04-08T01:25:56.856Z,93.10
2023-04-08T01:28:27.224Z,93.00
2023-04-08T01:30:57.078Z,93.20
2023-04-08T01:33:28.832Z,93.40
2023-04-08T01:35:57.966Z,93.20
2023-04-08T01:38:26.642Z,92.90
2023-04-08T01:40:55.903Z,92.90
2023-04-08T01:43:25.443Z,93.00
2023-04-08T01:45:58.496Z,93.10
2023-04-08T01:48:27.005Z,93.00
2023-04-08T01:50:56.175Z,92.70
2023-04-08T01:53:23.857Z,92.50
2023-04-08T01:56:01.656Z,92.70
2023-04-08T01:58:37.264Z,92.90
2023-04-08T02:01:10.487Z,93.10
2023-04-08T02:03:41.649Z,93.30
2023-04-08T02:06:09.094Z,93.50
2023-04-08T02:08:36.593Z,93.60
2023-04-08T02:11:04.345Z,93.50
2023-04-08T02:13:32.027Z,93.50
2023-04-08T02:16:21.463Z,93.60
2023-04-08T02:18:59.134Z,93.60
2023-04-08T02:21:37.024Z,93.60
2023-04-08T02:24:08.224Z,93.70
2023-04-08T02:26:37.129Z,93.70
2023-04-08T02:29:05.780Z,94.00
2023-04-08T02:31:34.856Z,94.00
2023-04-08T02:34:02.562Z,93.80
2023-04-08T02:36:33.089Z,93.80
2023-04-08T02:39:04.050Z,93.60
2023-04-08T02:41:31.722Z,93.50
2023-04-08T02:43:59.513Z,93.40
2023-04-08T02:46:26.741Z,93.60
2023-04-08T02:48:54.200Z,93.90
2023-04-08T02:51:21.754Z,94.00
2023-04-08T02:53:49.373Z,94.00
2023-04-08T02:56:16.841Z,93.90
2023-04-08T02:58:44.077Z,94.00
2023-04-08T03:01:11.631Z,94.10
2023-04-08T03:03:39.651Z,94.10
2023-04-08T03:06:07.060Z,94.20
2023-04-08T03:08:34.418Z,94.10
2023-04-08T03:11:01.681Z,94.10
2023-04-08T03:13:29.914Z,94.20
2023-04-08T03:15:57.512Z,94.10
2023-04-08T03:18:25.420Z,94.10
2023-04-08T03:20:52.677Z,94.30
2023-04-08T03:23:19.936Z,94.30
2023-04-08T03:25:47.300Z,94.20
2023-04-08T03:28:14.735Z,94.30
2023-04-08T03:30:42.591Z,94.50
2023-04-08T03:33:09.981Z,94.20
2023-04-08T03:35:38.742Z,94.20
2023-04-08T03:38:06.193Z,94.30
2023-04-08T03:40:33.501Z,94.30
2023-04-08T03:43:01.348Z,94.40
2023-04-08T03:45:28.694Z,94.50
2023-04-08T03:47:55.985Z,94.20
2023-04-08T03:50:23.539Z,94.30
2023-04-08T03:52:50.907Z,94.00
2023-04-08T03:55:18.306Z,93.90
2023-04-08T03:57:46.081Z,93.90
2023-04-08T04:00:14.167Z,93.90
2023-04-08T04:02:41.544Z,93.90
2023-04-08T04:05:09.029Z,93.70
2023-04-08T04:07:36.318Z,93.80
2023-04-08T04:10:03.872Z,93.80
2023-04-08T04:12:31.329Z,94.00
2023-04-08T04:14:58.573Z,93.90
2023-04-08T04:17:25.864Z,93.60
2023-04-08T04:19:53.203Z,93.60
2023-04-08T04:22:20.583Z,93.50
2023-04-08T04:24:50.879Z,93.60
2023-04-08T04:27:18.127Z,93.60
2023-04-08T04:29:45.429Z,93.30
2023-04-08T04:32:12.932Z,93.40
2023-04-08T04:34:40.318Z,93.20
2023-04-08T04:37:07.796Z,93.10
2023-04-08T04:39:35.243Z,93.20
2023-04-08T04:42:03.515Z,93.00
2023-04-08T04:44:31.127Z,93.00
2023-04-08T04:46:58.496Z,92.80
2023-04-08T04:49:27.139Z,92.70
2023-04-08T04:51:54.793Z,92.50
2023-04-08T04:54:22.026Z,92.50
2023-04-08T04:56:49.288Z,92.30
2023-04-08T04:59:16.543Z,92.10
2023-04-08T05:01:44.019Z,91.70
2023-04-08T05:04:11.773Z,91.80
2023-04-08T05:06:39.141Z,91.80
2023-04-08T05:09:06.395Z,91.60
2023-04-08T05:11:33.691Z,91.40
2023-04-08T05:14:01.109Z,91.20
2023-04-08T05:16:28.605Z,91.10
2023-04-08T05:18:56.117Z,90.80
2023-04-08T05:21:24.134Z,90.70
2023-04-08T05:23:53.149Z,90.50
2023-04-08T05:26:21.759Z,90.50
2023-04-08T05:28:49.966Z,90.60
2023-04-08T05:31:18.200Z,90.80
2023-04-08T05:33:45.898Z,90.80
2023-04-08T05:36:14.306Z,90.80
2023-04-08T05:38:44.377Z,90.70
2023-04-08T05:41:11.676Z,90.60
2023-04-08T05:43:38.922Z,90.40
2023-04-08T05:46:08.188Z,90.50
2023-04-08T05:48:36.237Z,90.70
2023-04-08T05:51:03.593Z,90.60
2023-04-08T05:53:30.982Z,90.40
2023-04-08T05:55:58.240Z,90.30
2023-04-08T05:58:25.890Z,90.30
2023-04-08T06:00:53.221Z,90.20
2023-04-08T06:03:21.121Z,90.30
2023-04-08T06:05:48.610Z,90.40
2023-04-08T06:08:16.405Z,90.20
2023-04-08T06:10:51.063Z,90.10
2023-04-08T06:13:20.180Z,90.10
2023-04-08T06:15:49.017Z,90.20
2023-04-08T06:18:17.269Z,90.20
2023-04-08T06:20:44.614Z,90.10
2023-04-08T06:23:12.459Z,90.10
2023-04-08T06:25:39.911Z,90.10
2023-04-08T06:28:07.326Z,90.00
2023-04-08T06:30:34.689Z,90.10
2023-04-08T06:33:02.053Z,90.10
2023-04-08T06:35:29.624Z,89.90
2023-04-08T06:37:56.992Z,90.10
2023-04-08T06:40:24.257Z,90.20
2023-04-08T06:42:51.706Z,90.20
2023-04-08T06:45:29.063Z,90.00
2023-04-08T06:47:56.824Z,90.10
2023-04-08T06:50:24.072Z,90.00
2023-04-08T06:52:51.319Z,90.00
2023-04-08T06:55:18.581Z,88.70
2023-04-08T06:57:45.830Z,88.90
2023-04-08T07:00:13.771Z,88.90
2023-04-08T07:02:41.325Z,89.10
2023-04-08T07:05:08.804Z,89.30
2023-04-08T07:07:36.221Z,89.60
2023-04-08T07:10:03.798Z,88.70
2023-04-08T07:12:31.169Z,88.10
2023-04-08T07:14:58.401Z,88.90
2023-04-08T07:17:25.699Z,89.10
2023-04-08T07:19:53.026Z,89.10
2023-04-08T07:22:20.345Z,89.20
2023-04-08T07:24:49.783Z,89.00
2023-04-08T07:27:17.397Z,89.00
2023-04-08T07:29:44.648Z,89.50
2023-04-08T07:32:11.917Z,89.30
2023-04-08T07:34:39.195Z,89.30
2023-04-08T07:37:06.519Z,89.90
2023-04-08T07:39:33.772Z,89.00
2023-04-08T07:42:01.394Z,88.70
2023-04-08T07:44:28.707Z,88.30
2023-04-08T07:46:56.287Z,88.90
2023-04-08T07:49:23.529Z,88.20
2023-04-08T07:51:51.529Z,88.20
2023-04-08T07:54:19.514Z,88.20
2023-04-08T07:56:46.773Z,88.90
2023-04-08T07:59:14.083Z,89.30
2023-04-08T08:01:41.419Z,89.80
2023-04-08T08:04:09.055Z,90.00
2023-04-08T08:06:36.405Z,90.20
2023-04-08T08:09:03.744Z,90.20
2023-04-08T08:11:31.214Z,90.40
2023-04-08T08:13:58.528Z,90.80
2023-04-08T08:16:29.221Z,90.70
2023-04-08T08:18:56.677Z,90.70
2023-04-08T08:21:24.333Z,91.00
2023-04-08T08:23:53.010Z,91.10
2023-04-08T08:26:21.197Z,91.10
2023-04-08T08:28:48.514Z,91.40
2023-04-08T08:31:16.005Z,91.60
2023-04-08T08:33:43.435Z,91.60
2023-04-08T08:36:10.744Z,91.60
2023-04-08T08:38:38.094Z,92.00
2023-04-08T08:41:05.548Z,92.10
2023-04-08T08:43:33.699Z,92.00
2023-04-08T08:46:01.490Z,91.80
2023-04-08T08:48:28.763Z,91.50
2023-04-08T08:50:57.924Z,91.10
2023-04-08T08:53:31.027Z,91.10
2023-04-08T08:56:16.285Z,91.50
2023-04-08T08:58:44.896Z,91.70
2023-04-08T09:01:32.508Z,91.20
2023-04-08T09:04:18.570Z,91.20
2023-04-08T09:06:47.518Z,91.20
2023-04-08T09:09:14.887Z,90.90
2023-04-08T09:11:44.378Z,91.00
2023-04-08T09:14:38.107Z,91.30
2023-04-08T09:17:05.362Z,91.60
2023-04-08T09:19:33.047Z,91.40
2023-04-08T09:22:08.046Z,91.30
2023-04-08T09:27:07.593Z,91.70
2023-04-08T09:29:38.161Z,91.60
2023-04-08T09:32:06.770Z,91.60
2023-04-08T09:34:34.481Z,91.80
2023-04-08T09:37:02.277Z,91.90
2023-04-08T09:39:30.887Z,91.80
2023-04-08T09:42:01.319Z,91.60
2023-04-08T09:44:30.606Z,91.40
2023-04-08T09:47:11.246Z,91.60
2023-04-08T09:49:46.341Z,91.50
2023-04-08T09:52:24.413Z,91.80
2023-04-08T09:55:13.037Z,91.40
2023-04-08T09:57:55.706Z,91.50
2023-04-08T10:00:29.090Z,91.50
2023-04-08T10:03:25.504Z,91.90
2023-04-08T10:05:54.352Z,91.80
2023-04-08T10:08:23.028Z,91.90
2023-04-08T10:10:51.241Z,91.70
2023-04-08T10:13:18.945Z,91.50
2023-04-08T10:15:47.686Z,91.40
2023-04-08T10:18:18.284Z,91.60
2023-04-08T10:20:47.561Z,91.50
2023-04-08T10:23:16.697Z,91.10
2023-04-08T10:25:48.545Z,90.90
2023-04-08T10:28:18.543Z,90.80
2023-04-08T10:30:49.753Z,90.80
2023-04-08T10:33:22.227Z,90.80
2023-04-08T10:35:54.319Z,91.10
2023-04-08T10:38:22.396Z,91.10
2023-04-08T10:40:49.828Z,90.70
2023-04-08T10:43:17.792Z,90.70
2023-04-08T10:45:51.314Z,90.90
2023-04-08T10:48:28.957Z,91.50
2023-04-08T10:51:01.328Z,91.00
2023-04-08T10:53:29.609Z,90.90
2023-04-08T10:56:13.254Z,91.30
2023-04-08T10:58:55.237Z,91.30
2023-04-08T11:01:23.346Z,91.00
2023-04-08T11:03:51.612Z,91.20
2023-04-08T11:06:19.616Z,91.30
2023-04-08T11:08:47.341Z,91.30
2023-04-08T11:11:15.432Z,91.30
2023-04-08T11:13:52.831Z,91.60
2023-04-08T11:16:24.605Z,91.60
2023-04-08T11:18:52.120Z,91.30
2023-04-08T11:21:19.768Z,91.30
2023-04-08T11:23:51.173Z,90.80
2023-04-08T11:26:20.155Z,91.00
2023-04-08T11:28:51.914Z,90.80
2023-04-08T11:31:23.548Z,90.70
2023-04-08T11:33:54.360Z,90.90
2023-04-08T11:36:22.087Z,90.80
2023-04-08T11:38:49.661Z,91.10
2023-04-08T11:41:17.764Z,91.20
2023-04-08T11:43:52.491Z,91.20
2023-04-08T11:46:20.540Z,91.00
2023-04-08T11:49:01.950Z,90.90
2023-04-08T11:51:29.653Z,90.90
2023-04-08T11:53:57.463Z,90.90
2023-04-08T11:56:25.625Z,90.90
2023-04-08T11:58:53.401Z,90.70
2023-04-08T12:01:21.557Z,90.60
2023-04-08T12:04:00.235Z,90.70
2023-04-08T12:06:28.726Z,90.70
2023-04-08T12:08:56.807Z,90.40
2023-04-08T12:11:24.307Z,90.50
2023-04-08T12:13:53.119Z,90.50
2023-04-08T12:16:21.185Z,89.90
2023-04-08T12:18:48.778Z,89.80
2023-04-08T12:21:16.218Z,90.10
2023-04-08T12:23:43.848Z,88.90
2023-04-08T12:26:11.623Z,88.70
2023-04-08T12:28:39.095Z,89.80
2023-04-08T12:31:06.621Z,88.90
2023-04-08T12:33:33.933Z,87.40
2023-04-08T12:36:01.578Z,86.80
2023-04-08T12:38:29.088Z,87.20
2023-04-08T12:40:57.188Z,86.60
2023-04-08T12:43:24.502Z,86.60
2023-04-08T12:45:52.013Z,86.20
2023-04-08T12:48:19.309Z,87.30
2023-04-08T12:50:46.653Z,86.60
2023-04-08T12:53:14.024Z,86.90
2023-04-08T12:55:43.227Z,87.50
2023-04-08T12:58:11.734Z,87.60
2023-04-08T13:00:40.173Z,86.90
2023-04-08T13:03:07.657Z,87.00
2023-04-08T13:05:43.076Z,87.00
2023-04-08T13:08:14.399Z,86.40
2023-04-08T13:10:42.634Z,87.00
2023-04-08T13:13:09.990Z,85.40
2023-04-08T13:15:38.045Z,86.00
2023-04-08T13:18:05.627Z,85.90
2023-04-08T13:20:33.567Z,86.00
2023-04-08T13:23:01.400Z,85.40
2023-04-08T13:25:28.822Z,85.20
2023-04-08T13:27:56.386Z,86.10
2023-04-08T13:30:23.688Z,86.10
2023-04-08T13:32:51.175Z,85.40
2023-04-08T13:35:18.568Z,85.50
2023-04-08T13:37:46.139Z,84.60
2023-04-08T13:40:13.483Z,83.80
2023-04-08T13:42:41.573Z,82.80
2023-04-08T13:45:09.200Z,82.40
2023-04-08T13:47:38.077Z,82.20
2023-04-08T13:50:07.144Z,81.30
2023-04-08T13:52:34.623Z,80.50
2023-04-08T13:55:01.918Z,80.50
2023-04-08T13:57:29.172Z,80.80
2023-04-08T13:59:56.449Z,80.40
2023-04-08T14:02:24.506Z,80.20
2023-04-08T14:04:52.511Z,79.10
2023-04-08T14:07:19.907Z,78.90
2023-04-08T14:09:47.169Z,80.20
2023-04-08T14:12:14.506Z,80.90
2023-04-08T14:14:41.904Z,79.80
2023-04-08T14:17:09.318Z,79.80
2023-04-08T14:19:36.681Z,79.10
2023-04-08T14:22:03.950Z,78.90
2023-04-08T14:24:31.277Z,78.60
2023-04-08T14:26:59.007Z,77.20
2023-04-08T14:29:27.677Z,76.60
2023-04-08T14:31:55.033Z,75.50
2023-04-08T14:34:22.309Z,75.30
2023-04-08T14:36:49.549Z,75.50
2023-04-08T14:39:16.919Z,74.30
2023-04-08T14:41:44.243Z,74.10
2023-04-08T14:44:11.561Z,73.20
2023-04-08T14:46:39.822Z,74.00
2023-04-08T14:49:07.233Z,73.70
2023-04-08T14:51:34.569Z,73.70
2023-04-08T14:54:02.276Z,74.00
2023-04-08T14:56:29.634Z,74.30
2023-04-08T14:58:57.032Z,73.40
2023-04-08T15:01:24.371Z,72.90
2023-04-08T15:03:51.803Z,73.70
2023-04-08T15:06:21.685Z,74.10
2023-04-08T15:08:49.359Z,73.30
2023-04-08T15:11:16.790Z,73.90
2023-04-08T15:13:44.075Z,74.20
2023-04-08T15:16:11.458Z,74.70
2023-04-08T15:18:38.974Z,75.70
2023-04-08T15:21:06.319Z,75.90
2023-04-08T15:23:33.626Z,76.60
2023-04-08T15:26:01.198Z,76.70
2023-04-08T15:28:28.488Z,76.60
2023-04-08T15:30:56.112Z,76.90
2023-04-08T15:33:23.816Z,76.90
2023-04-08T15:35:51.313Z,77.30
2023-04-08T15:38:18.767Z,77.90
2023-04-08T15:40:48.104Z,77.90
2023-04-08T15:43:15.915Z,78.40
2023-04-08T15:45:44.391Z,79.80
2023-04-08T15:48:16.857Z,80.00
2023-04-08T15:50:44.891Z,80.10
2023-04-08T15:53:12.395Z,80.10
2023-04-08T15:55:41.076Z,80.00
2023-04-08T15:58:08.486Z,80.00
2023-04-08T16:00:36.087Z,80.50
2023-04-08T16:03:05.533Z,80.60
2023-04-08T16:05:35.874Z,80.80
2023-04-08T16:08:04.524Z,81.00
2023-04-08T16:10:31.918Z,81.40
2023-04-08T16:12:59.231Z,81.40
2023-04-08T16:15:26.792Z,81.70
2023-04-08T16:17:54.412Z,82.20
2023-04-08T16:20:21.721Z,82.20
2023-04-08T16:22:50.229Z,82.40
2023-04-08T16:25:17.750Z,82.60
2023-04-08T16:27:45.107Z,83.90
2023-04-08T16:30:12.524Z,83.40
2023-04-08T16:32:40.274Z,83.80
2023-04-08T16:35:08.139Z,84.00
2023-04-08T16:37:35.592Z,84.70
2023-04-08T16:40:03.831Z,84.90
2023-04-08T16:42:32.939Z,85.10
2023-04-08T16:45:01.141Z,85.60
2023-04-08T16:47:28.931Z,85.90
2023-04-08T16:49:56.290Z,86.50
2023-04-08T16:52:23.589Z,87.10
2023-04-08T16:54:52.282Z,87.30
2023-04-08T16:57:19.719Z,87.30
2023-04-08T16:59:47.238Z,87.40
2023-04-08T17:02:14.817Z,88.00
2023-04-08T17:04:42.092Z,88.30
2023-04-08T17:07:09.497Z,88.90
2023-04-08T17:09:37.612Z,89.10
2023-04-08T17:12:04.952Z,89.00
2023-04-08T17:14:33.663Z,89.10
2023-04-08T17:17:01.388Z,89.00
2023-04-08T17:19:28.704Z,89.20
2023-04-08T17:21:56.117Z,89.20
2023-04-08T17:24:23.701Z,89.00
2023-04-08T17:26:51.151Z,89.00
2023-04-08T17:29:18.433Z,89.00
2023-04-08T17:31:46.026Z,89.20
2023-04-08T17:34:13.419Z,89.40
2023-04-08T17:36:40.859Z,89.60
2023-04-08T17:39:08.247Z,89.50
2023-04-08T17:41:40.417Z,89.10
2023-04-08T17:44:08.695Z,89.20
2023-04-08T17:46:36.188Z,89.50
2023-04-08T17:49:03.450Z,90.00
2023-04-08T17:51:31.994Z,90.40
2023-04-08T17:53:59.339Z,90.60
2023-04-08T17:56:27.989Z,90.90
2023-04-08T17:58:55.477Z,91.00
2023-04-08T18:01:23.075Z,91.20
2023-04-08T18:03:51.738Z,91.30
2023-04-08T18:06:19.457Z,91.50
2023-04-08T18:08:46.703Z,91.70
2023-04-08T18:11:14.328Z,91.80
2023-04-08T18:13:41.701Z,92.00
2023-04-08T18:16:20.401Z,92.10
2023-04-08T18:18:48.629Z,92.50
2023-04-08T18:21:19.314Z,92.30
2023-04-08T18:23:49.642Z,92.60
2023-04-08T18:26:17.558Z,92.50
2023-04-08T18:28:44.850Z,92.70
2023-04-08T18:31:12.305Z,92.80
2023-04-08T18:33:39.673Z,92.90
2023-04-08T18:36:08.531Z,93.00
2023-04-08T18:38:36.885Z,93.00
2023-04-08T18:41:04.752Z,92.80
2023-04-08T18:43:32.717Z,92.90
2023-04-08T18:46:00.473Z,93.00
2023-04-08T18:48:27.782Z,92.90
2023-04-08T18:50:55.269Z,92.90
2023-04-08T18:53:23.192Z,93.00
2023-04-08T18:55:51.339Z,92.90
2023-04-08T18:58:18.617Z,93.10
2023-04-08T19:00:46.068Z,93.00
2023-04-08T19:03:13.601Z,93.00
2023-04-08T19:05:41.009Z,92.90
2023-04-08T19:08:08.442Z,93.00
2023-04-08T19:10:35.822Z,92.90
2023-04-08T19:13:03.144Z,92.90
2023-04-08T19:15:30.973Z,92.90
2023-04-08T19:17:59.148Z,92.90
2023-04-08T19:20:27.367Z,92.80
2023-04-08T19:22:55.928Z,92.80
2023-04-08T19:25:23.214Z,92.80
2023-04-08T19:27:50.626Z,93.00
2023-04-08T19:30:17.975Z,92.60
2023-04-08T19:32:45.943Z,92.60
2023-04-08T19:35:13.606Z,92.50
2023-04-08T19:37:41.085Z,92.50
2023-04-08T19:40:09.716Z,92.50
2023-04-08T19:42:36.990Z,92.50
2023-04-08T19:45:05.286Z,92.60
2023-04-08T19:47:32.978Z,92.50
2023-04-08T19:50:00.393Z,92.50
2023-04-08T19:52:27.810Z,92.40
2023-04-08T19:54:55.253Z,92.40
2023-04-08T19:57:22.657Z,92.40
2023-04-08T19:59:53.237Z,92.40
2023-04-08T20:02:21.067Z,92.40
2023-04-08T20:04:48.676Z,92.30
2023-04-08T20:07:16.154Z,92.30
2023-04-08T20:09:43.522Z,92.30
2023-04-08T20:12:10.840Z,92.20
2023-04-08T20:14:42.017Z,92.10
2023-04-08T20:17:09.366Z,92.20
2023-04-08T20:19:36.665Z,92.10
2023-04-08T20:22:04.054Z,92.20
2023-04-08T20:24:31.767Z,92.20
2023-04-08T20:26:59.973Z,92.10
2023-04-08T20:29:27.192Z,92.10
2023-04-08T20:31:54.696Z,92.10
2023-04-08T20:34:21.921Z,92.20
2023-04-08T20:36:49.205Z,92.00
2023-04-08T20:39:16.477Z,91.90
2023-04-08T20:41:43.875Z,92.10
2023-04-08T20:44:11.203Z,92.40
2023-04-08T20:46:38.516Z,92.20
2023-04-08T20:49:06.131Z,92.20
2023-04-08T20:51:33.757Z,92.10
2023-04-08T20:54:01.245Z,92.10
2023-04-08T20:56:28.575Z,92.10
2023-04-08T20:58:58.208Z,92.20
2023-04-08T21:01:27.088Z,92.10
2023-04-08T21:03:54.753Z,92.10
2023-04-08T21:06:22.268Z,92.20
2023-04-08T21:08:50.462Z,92.20
2023-04-08T21:11:18.058Z,92.10
2023-04-08T21:13:48.086Z,92.10
2023-04-08T21:16:16.376Z,92.10
2023-04-08T21:18:43.716Z,92.10
2023-04-08T21:21:13.987Z,92.00
2023-04-08T21:23:41.263Z,92.00
2023-04-08T21:26:15.154Z,91.90
2023-04-08T21:28:43.893Z,91.90
2023-04-08T21:31:12.388Z,91.90
2023-04-08T21:33:40.125Z,91.80
2023-04-08T21:36:07.812Z,91.80
2023-04-08T21:38:35.777Z,91.80
2023-04-08T21:41:03.165Z,91.80
2023-04-08T21:43:30.493Z,91.80
2023-04-08T21:45:57.750Z,91.80
2023-04-08T21:48:25.177Z,91.90
2023-04-08T21:50:53.241Z,91.90
2023-04-08T21:53:22.145Z,91.90
2023-04-08T21:55:49.481Z,92.00
2023-04-08T21:58:17.343Z,92.00
2023-04-08T22:00:44.850Z,92.00
2023-04-08T22:03:12.435Z,92.20
2023-04-08T22:05:40.195Z,92.20
2023-04-08T22:08:07.499Z,92.30
2023-04-08T22:10:34.820Z,92.30
2023-04-08T22:13:02.148Z,92.20
2023-04-08T22:15:29.611Z,92.20
2023-04-08T22:17:57.299Z,92.20
2023-04-08T22:20:24.714Z,92.20
2023-04-08T22:22:52.161Z,92.10
2023-04-08T22:25:19.620Z,92.10
2023-04-08T22:27:46.875Z,92.10
2023-04-08T22:30:14.271Z,92.10
2023-04-08T22:32:41.627Z,92.10
2023-04-08T22:35:09.385Z,92.10
2023-04-08T22:37:36.652Z,92.00
2023-04-08T22:40:04.432Z,92.00
2023-04-08T22:42:31.710Z,92.10
2023-04-08T22:44:59.645Z,92.20
2023-04-08T22:47:26.967Z,92.30
2023-04-08T22:49:54.240Z,92.20
2023-04-08T22:52:21.637Z,92.20
2023-04-08T22:54:48.922Z,92.10
2023-04-08T22:57:16.401Z,92.20
2023-04-08T22:59:43.659Z,92.30
2023-04-08T23:02:11.234Z,92.40
2023-04-08T23:04:38.544Z,92.40
2023-04-08T23:07:06.134Z,92.40
2023-04-08T23:09:33.654Z,92.40
2023-04-08T23:12:01.587Z,92.40
2023-04-08T23:14:28.838Z,92.40
2023-04-08T23:16:56.064Z,92.30
2023-04-08T23:19:23.483Z,92.30
2023-04-08T23:21:50.708Z,92.20
2023-04-08T23:24:17.945Z,92.20
2023-04-08T23:26:45.460Z,92.30
2023-04-08T23:29:12.900Z,92.20
2023-04-08T23:31:40.496Z,91.60
2023-04-08T23:34:07.875Z,91.50
2023-04-08T23:36:35.148Z,91.70
2023-04-08T23:39:02.549Z,91.90
2023-04-08T23:41:29.780Z,92.10
2023-04-08T23:43:57.114Z,92.20
2023-04-08T23:46:24.353Z,92.60
2023-04-08T23:48:52.018Z,92.50
2023-04-08T23:51:19.494Z,92.70
2023-04-08T23:53:46.958Z,92.90
2023-04-08T23:56:14.221Z,93.10
2023-04-08T23:58:41.636Z,93.10
